Aviation Digital Data Service (ADDS)

Output produced by TAFs form (1333 UTC 17 September 2014)
found at http://www.aviationweather.gov/adds/tafs/
 
KSBY 171120Z 1712/1812 04003KT P6SM SCT070 
     FM171500 08008KT P6SM SCT050 SCT070 
     FM180300 VRB02KT P6SM SCT050 
     FM180800 00000KT 2SM BR SCT050